Time;durP1;ratioP1;P1;durP2;ratioP2;P2;SDS_P1;SDS_P2;PMS_P1;PMS_P2;Temp;Humidity;BMP_temperature;BMP_pressure;BME280_temperature;BME280_humidity;BME280_pressure;Samples;Min_cycle;Max_cycle;Signal;HPM_P1;HPM_P2
2023/01/20 05:03:07;;;;;;;4.68;4.25;;;1.30;99.90;;;;;;4870069;29;20234;-68
2023/01/20 05:05:34;;;;;;;6.75;5.07;;;1.30;99.90;;;;;;4895088;29;20218;-68
2023/01/20 05:08:03;;;;;;;7.63;3.42;;;1.30;99.90;;;;;;4888690;29;20282;-68
2023/01/20 05:10:30;;;;;;;4.15;3.42;;;1.30;99.90;;;;;;4885180;29;20262;-68
2023/01/20 05:12:57;;;;;;;5.40;4.75;;;1.20;99.90;;;;;;4875845;29;20251;-67
2023/01/20 05:15:24;;;;;;;7.88;4.65;;;1.20;99.90;;;;;;4876764;29;20317;-67
2023/01/20 05:17:51;;;;;;;7.25;6.57;;;1.20;99.90;;;;;;4875367;29;20228;-66
2023/01/20 05:20:20;;;;;;;4.82;3.95;;;1.30;99.90;;;;;;4876108;29;20235;-67
2023/01/20 05:22:46;;;;;;;10.00;6.00;;;1.30;99.90;;;;;;4876022;29;20208;-66
2023/01/20 05:25:13;;;;;;;3.00;2.75;;;1.30;99.90;;;;;;4875491;29;20218;-67
2023/01/20 05:27:40;;;;;;;5.10;4.63;;;1.30;99.90;;;;;;4876451;29;20240;-68
2023/01/20 05:30:08;;;;;;;8.07;6.55;;;1.30;99.90;;;;;;4876676;29;20259;-67
2023/01/20 05:32:35;;;;;;;7.70;5.65;;;1.30;99.90;;;;;;4875240;29;20226;-67
2023/01/20 05:35:02;;;;;;;6.93;3.03;;;1.30;99.90;;;;;;4873277;29;20208;-65
2023/01/20 05:37:30;;;;;;;8.20;3.45;;;1.30;99.90;;;;;;4872616;29;20219;-67
2023/01/20 05:39:57;;;;;;;5.97;4.25;;;1.30;99.90;;;;;;4876377;29;20573;-66
2023/01/20 05:42:24;;;;;;;10.13;6.07;;;1.30;99.90;;;;;;4876101;29;20675;-66
2023/01/20 05:44:50;;;;;;;6.82;4.03;;;1.40;99.90;;;;;;4875998;29;20212;-68
2023/01/20 05:47:17;;;;;;;4.43;4.22;;;1.30;99.90;;;;;;4876211;29;20211;-66
2023/01/20 05:49:44;;;;;;;6.20;4.60;;;1.40;99.90;;;;;;4872087;29;20208;-66
2023/01/20 05:52:11;;;;;;;6.15;5.38;;;1.40;99.90;;;;;;4875954;29;20247;-66
2023/01/20 05:54:39;;;;;;;7.97;5.45;;;1.40;99.90;;;;;;4874670;29;20209;-66
2023/01/20 05:57:06;;;;;;;8.25;6.18;;;1.40;99.90;;;;;;4876861;29;20686;-67
2023/01/20 05:59:32;;;;;;;2.78;2.65;;;1.40;99.90;;;;;;4876197;29;20215;-67
2023/01/20 06:01:59;;;;;;;6.50;4.20;;;1.40;99.90;;;;;;4875758;29;20243;-67
2023/01/20 06:04:26;;;;;;;9.43;3.35;;;1.40;99.90;;;;;;4874378;29;20210;-67
2023/01/20 06:06:53;;;;;;;3.72;1.90;;;1.40;99.90;;;;;;4876283;29;20222;-68
2023/01/20 06:09:19;;;;;;;7.47;6.88;;;1.40;99.90;;;;;;4875301;29;20204;-67
2023/01/20 06:11:47;;;;;;;8.10;7.32;;;1.40;99.90;;;;;;4875524;29;20232;-67
2023/01/20 06:14:14;;;;;;;5.80;4.07;;;1.40;99.90;;;;;;4874599;29;20212;-67
2023/01/20 06:16:41;;;;;;;3.30;2.22;;;1.40;99.90;;;;;;4876710;29;20235;-69
2023/01/20 06:19:08;;;;;;;4.20;3.80;;;1.40;99.90;;;;;;4875776;29;20212;-68
2023/01/20 06:21:34;;;;;;;6.22;4.95;;;1.30;99.90;;;;;;4871984;29;20228;-68
2023/01/20 06:24:01;;;;;;;3.72;3.40;;;1.40;99.90;;;;;;4875384;29;20241;-69
2023/01/20 06:26:28;;;;;;;7.70;6.63;;;1.30;99.90;;;;;;4874696;29;20227;-68
2023/01/20 06:29:00;;;;;;;7.15;5.22;;;1.30;99.90;;;;;;4875870;29;20215;-68
2023/01/20 06:31:27;;;;;;;7.07;6.75;;;1.30;99.90;;;;;;4874645;29;20776;-67
2023/01/20 06:33:54;;;;;;;5.20;4.82;;;1.30;99.90;;;;;;4874955;29;20222;-68
2023/01/20 06:36:22;;;;;;;7.32;4.95;;;1.30;99.90;;;;;;4874753;29;20235;-68
2023/01/20 06:38:49;;;;;;;7.93;4.97;;;1.30;99.90;;;;;;4874370;29;20210;-68
2023/01/20 06:41:18;;;;;;;5.30;4.80;;;1.30;99.90;;;;;;4872297;29;20230;-67
2023/01/20 06:43:45;;;;;;;4.18;3.78;;;1.30;99.90;;;;;;4873394;29;20212;-67
2023/01/20 06:46:14;;;;;;;7.78;3.05;;;1.30;99.90;;;;;;4875349;29;20728;-68
2023/01/20 06:48:42;;;;;;;6.05;4.50;;;1.30;99.90;;;;;;4876547;29;20676;-67
2023/01/20 06:51:12;;;;;;;8.80;4.32;;;1.30;99.90;;;;;;4875705;29;20310;-66
2023/01/20 06:53:39;;;;;;;6.18;5.03;;;1.30;99.90;;;;;;4875325;29;20606;-66
2023/01/20 06:56:06;;;;;;;5.32;3.63;;;1.40;99.90;;;;;;4874931;29;20237;-67
2023/01/20 06:58:34;;;;;;;8.05;6.18;;;1.30;99.90;;;;;;4874710;29;20212;-67
2023/01/20 07:01:07;;;;;;;15.15;7.88;;;1.40;99.90;;;;;;4873827;29;20255;-68
2023/01/20 07:03:35;;;;;;;6.85;6.30;;;1.40;99.90;;;;;;4875546;29;20212;-67
2023/01/20 07:06:04;;;;;;;16.25;10.27;;;1.40;99.90;;;;;;4875381;29;20299;-68
2023/01/20 07:08:30;;;;;;;23.45;13.60;;;1.30;99.90;;;;;;4875550;29;20536;-68
2023/01/20 07:10:57;;;;;;;6.85;4.97;;;1.40;99.90;;;;;;4873061;29;20234;-67
2023/01/20 07:13:24;;;;;;;13.38;7.50;;;1.30;99.90;;;;;;4874875;29;20211;-67
2023/01/20 07:15:51;;;;;;;11.30;6.15;;;1.30;99.90;;;;;;4876274;29;20208;-66
2023/01/20 07:18:18;;;;;;;5.35;4.95;;;1.30;99.90;;;;;;4874703;29;20305;-65
2023/01/20 07:20:46;;;;;;;7.88;3.30;;;1.30;99.90;;;;;;4875995;29;20246;-66
2023/01/20 07:23:13;;;;;;;2.97;2.88;;;1.30;99.90;;;;;;4875012;29;20288;-70
2023/01/20 07:25:40;;;;;;;4.05;3.95;;;1.30;99.90;;;;;;4874990;29;20204;-67
2023/01/20 07:28:06;;;;;;;10.30;9.30;;;1.30;99.90;;;;;;4875102;29;20721;-66
2023/01/20 07:30:33;;;;;;;3.50;2.83;;;1.30;99.90;;;;;;4876094;29;20267;-66
2023/01/20 07:33:00;;;;;;;3.75;3.40;;;1.30;99.90;;;;;;4875122;29;20214;-66
2023/01/20 07:35:27;;;;;;;7.72;4.28;;;1.30;99.90;;;;;;4875144;29;20204;-66
2023/01/20 07:37:55;;;;;;;5.85;5.45;;;1.30;99.90;;;;;;4875617;29;20231;-66
2023/01/20 07:40:22;;;;;;;5.40;4.38;;;1.30;99.90;;;;;;4870863;29;20212;-65
2023/01/20 07:42:48;;;;;;;7.75;6.20;;;1.30;99.90;;;;;;4876626;29;20640;-66
2023/01/20 07:45:16;;;;;;;6.63;3.75;;;1.40;99.90;;;;;;4884089;29;20222;-65
2023/01/20 07:47:42;;;;;;;9.15;5.45;;;1.30;99.90;;;;;;4878355;29;20630;-65
2023/01/20 07:50:13;;;;;;;6.80;6.35;;;1.30;99.90;;;;;;4879182;29;20223;-66
2023/01/20 07:52:40;;;;;;;7.90;5.50;;;1.30;99.90;;;;;;4876577;29;20215;-66
2023/01/20 07:55:08;;;;;;;9.98;8.52;;;1.30;99.90;;;;;;4881493;29;20212;-66
2023/01/20 07:57:35;;;;;;;5.50;5.20;;;1.30;99.90;;;;;;4878778;29;20699;-66
2023/01/20 08:00:02;;;;;;;5.30;2.90;;;1.30;99.90;;;;;;4872493;29;20231;-66
2023/01/20 08:02:28;;;;;;;4.57;4.18;;;1.30;99.90;;;;;;4875390;29;20242;-66
2023/01/20 08:04:55;;;;;;;13.90;3.58;;;1.30;99.90;;;;;;4886233;29;20531;-66
2023/01/20 08:07:22;;;;;;;12.13;6.20;;;1.30;99.90;;;;;;4875213;29;20219;-66
2023/01/20 08:09:49;;;;;;;10.35;6.70;;;1.30;99.90;;;;;;4870622;29;20218;-66
2023/01/20 08:12:17;;;;;;;5.00;2.10;;;1.30;99.90;;;;;;4875347;29;20289;-66
2023/01/20 08:14:43;;;;;;;6.00;5.45;;;1.30;99.90;;;;;;4873330;29;20225;-66
2023/01/20 08:17:10;;;;;;;12.85;4.45;;;1.30;99.90;;;;;;4877996;29;20230;-67
2023/01/20 08:19:37;;;;;;;15.25;8.05;;;1.30;99.90;;;;;;4875554;29;20216;-66
2023/01/20 08:22:03;;;;;;;4.78;3.90;;;1.30;99.90;;;;;;4878846;29;20239;-67
2023/01/20 08:24:30;;;;;;;6.70;5.20;;;1.30;99.90;;;;;;4877809;29;20614;-68
2023/01/20 08:26:57;;;;;;;10.20;6.82;;;1.30;99.90;;;;;;4879139;29;20204;-67
2023/01/20 08:29:26;;;;;;;6.85;4.45;;;1.30;99.90;;;;;;4876773;29;20338;-66
2023/01/20 08:31:53;;;;;;;3.30;3.10;;;1.40;99.90;;;;;;4876474;29;20232;-67
2023/01/20 08:34:20;;;;;;;19.30;7.25;;;1.40;99.90;;;;;;4877702;29;20211;-67
2023/01/20 08:36:48;;;;;;;6.88;4.75;;;1.40;99.90;;;;;;4876528;29;20228;-67
2023/01/20 08:39:17;;;;;;;5.72;5.47;;;1.40;99.90;;;;;;4877956;29;20606;-67
2023/01/20 08:41:45;;;;;;;11.40;7.07;;;1.40;99.90;;;;;;4876916;29;20236;-66
2023/01/20 08:44:12;;;;;;;7.30;4.70;;;1.40;99.90;;;;;;4873103;29;20219;-67
2023/01/20 08:46:40;;;;;;;24.55;3.53;;;1.40;99.90;;;;;;4876477;29;20224;-67
2023/01/20 08:49:08;;;;;;;16.63;6.13;;;1.40;99.90;;;;;;4879833;29;20238;-67
2023/01/20 08:51:34;;;;;;;3.15;2.33;;;1.40;99.90;;;;;;4877486;29;20232;-66
2023/01/20 08:54:02;;;;;;;11.07;7.53;;;1.40;99.90;;;;;;4878435;29;20211;-65
2023/01/20 08:56:29;;;;;;;8.45;5.25;;;1.40;99.90;;;;;;4873807;29;20234;-65
2023/01/20 08:58:57;;;;;;;4.25;3.92;;;1.40;99.90;;;;;;4878426;29;20826;-65
2023/01/20 09:01:25;;;;;;;5.25;4.78;;;1.40;99.90;;;;;;4874428;29;20236;-66
2023/01/20 09:03:54;;;;;;;12.80;6.05;;;1.50;99.90;;;;;;4876434;29;20670;-65
2023/01/20 09:06:21;;;;;;;6.05;5.45;;;1.50;99.90;;;;;;4877473;29;20219;-65
2023/01/20 09:08:49;;;;;;;7.65;5.45;;;1.40;99.90;;;;;;4876610;29;20215;-66
2023/01/20 09:11:18;;;;;;;19.63;8.60;;;1.50;99.90;;;;;;4877152;29;20627;-66
2023/01/20 09:13:45;;;;;;;16.75;11.25;;;1.50;99.90;;;;;;4877319;29;20477;-66
2023/01/20 09:16:13;;;;;;;7.35;5.20;;;1.50;99.90;;;;;;4877592;29;20210;-66
2023/01/20 09:18:40;;;;;;;5.45;4.32;;;1.50;99.90;;;;;;4877693;29;20676;-66
2023/01/20 09:21:08;;;;;;;10.02;5.13;;;1.50;99.90;;;;;;4877667;29;20236;-66
2023/01/20 09:23:37;;;;;;;7.80;5.40;;;1.50;99.90;;;;;;4874410;29;20204;-66
2023/01/20 09:26:05;;;;;;;8.27;3.75;;;1.60;99.90;;;;;;4876081;29;20560;-66
2023/01/20 09:28:32;;;;;;;12.10;6.15;;;1.60;99.90;;;;;;4878602;29;20231;-66
2023/01/20 09:30:59;;;;;;;3.70;3.50;;;1.70;99.90;;;;;;4878503;29;20609;-67
2023/01/20 09:33:26;;;;;;;15.40;4.30;;;1.70;99.90;;;;;;4877432;29;20211;-66
2023/01/20 09:35:57;;;;;;;3.97;2.70;;;1.70;99.90;;;;;;4878097;29;20204;-66
2023/01/20 09:44:15;;;;;;;6.43;5.93;;;1.90;99.90;;;;;;4875606;29;20215;-66
2023/01/20 09:55:29;;;;;;;6.25;3.35;;;2.10;99.90;;;;;;4867212;29;20291;-66
2023/01/20 09:58:04;;;;;;;7.70;3.55;;;2.10;99.90;;;;;;4876464;29;20237;-67
2023/01/20 10:00:35;;;;;;;29.13;6.95;;;2.20;99.90;;;;;;4877727;29;20215;-67
2023/01/20 10:03:06;;;;;;;7.75;7.03;;;2.20;99.90;;;;;;4877301;29;20219;-66
2023/01/20 10:05:38;;;;;;;11.38;5.35;;;2.20;99.90;;;;;;4877515;29;20209;-66
2023/01/20 10:08:12;;;;;;;7.68;6.03;;;2.30;99.90;;;;;;4877391;29;20299;-66
2023/01/20 10:10:46;;;;;;;5.90;4.25;;;2.30;99.90;;;;;;4875675;29;20235;-66
2023/01/20 10:13:19;;;;;;;4.15;2.55;;;2.30;99.90;;;;;;4877470;29;20224;-68
2023/01/20 10:15:51;;;;;;;4.68;4.22;;;2.30;99.90;;;;;;4877562;29;20716;-67
2023/01/20 10:18:24;;;;;;;14.40;6.72;;;2.30;99.90;;;;;;4877135;29;20264;-66
2023/01/20 10:20:56;;;;;;;11.00;7.00;;;2.40;99.90;;;;;;4877521;29;20292;-66
2023/01/20 10:23:29;;;;;;;2.53;2.30;;;2.40;99.90;;;;;;4876265;29;20539;-67
2023/01/20 10:26:04;;;;;;;6.38;3.75;;;2.40;99.90;;;;;;4877362;29;20607;-67
2023/01/20 10:28:37;;;;;;;4.10;3.75;;;2.50;99.90;;;;;;4877704;29;20218;-66
2023/01/20 10:31:05;;;;;;;4.75;4.32;;;2.50;99.90;;;;;;4876845;29;20232;-67
2023/01/20 10:33:35;;;;;;;5.68;4.15;;;2.60;99.90;;;;;;4877415;29;20322;-67
2023/01/20 10:36:02;;;;;;;8.95;3.80;;;2.70;99.90;;;;;;4877712;29;20234;-66
2023/01/20 10:38:35;;;;;;;9.30;5.15;;;2.80;99.90;;;;;;4876391;29;20228;-66
2023/01/20 10:41:11;;;;;;;8.38;5.50;;;2.80;99.90;;;;;;4877586;29;20630;-68
2023/01/20 10:43:38;;;;;;;6.22;4.80;;;2.70;99.90;;;;;;4877400;29;20203;-67
2023/01/20 10:46:16;;;;;;;2.60;2.35;;;2.70;99.90;;;;;;4876518;29;20577;-66
2023/01/20 10:48:58;;;;;;;5.72;4.63;;;2.70;99.90;;;;;;4876913;29;20658;-66
2023/01/20 10:51:32;;;;;;;8.18;3.80;;;2.70;99.90;;;;;;4875995;29;20242;-66
2023/01/20 10:54:13;;;;;;;9.32;3.70;;;2.90;99.90;;;;;;4876571;29;20211;-68
2023/01/20 10:56:52;;;;;;;15.05;9.00;;;3.00;99.90;;;;;;4877277;29;20222;-68
2023/01/20 10:59:27;;;;;;;12.27;6.28;;;3.10;99.90;;;;;;4876350;29;20256;-68
2023/01/20 11:01:59;;;;;;;5.00;3.88;;;3.10;99.90;;;;;;4876823;29;20267;-67
2023/01/20 11:04:27;;;;;;;3.15;2.35;;;3.10;99.90;;;;;;4876751;29;20212;-67
2023/01/20 11:06:57;;;;;;;7.15;4.18;;;3.00;99.90;;;;;;4876425;29;20243;-67
2023/01/20 11:09:35;;;;;;;3.40;2.97;;;3.00;99.90;;;;;;4866628;29;20239;-67
2023/01/20 11:12:12;;;;;;;10.85;5.13;;;2.90;99.90;;;;;;4873628;29;20236;-67
2023/01/20 11:14:39;;;;;;;3.83;3.53;;;2.90;99.90;;;;;;4877004;29;20220;-67
2023/01/20 11:17:12;;;;;;;5.10;3.20;;;2.90;99.90;;;;;;4876940;29;20216;-67
2023/01/20 11:19:51;;;;;;;5.63;4.65;;;2.90;99.90;;;;;;4876723;29;20344;-67
2023/01/20 11:22:26;;;;;;;6.80;5.40;;;2.90;99.90;;;;;;4876199;29;20228;-67
2023/01/20 11:24:55;;;;;;;13.15;4.05;;;2.90;99.90;;;;;;4875166;29;20221;-66
2023/01/20 11:27:27;;;;;;;6.18;2.67;;;3.00;99.90;;;;;;4876315;29;20232;-66
2023/01/20 11:29:58;;;;;;;3.65;3.13;;;3.00;99.90;;;;;;4876816;29;20212;-65
2023/01/20 11:32:33;;;;;;;8.02;3.95;;;3.00;99.90;;;;;;4876906;29;20231;-65
2023/01/20 11:35:02;;;;;;;18.55;8.80;;;3.00;99.90;;;;;;4876665;29;20222;-66
2023/01/20 11:37:37;;;;;;;3.15;2.85;;;3.10;99.90;;;;;;4876389;29;20236;-66
2023/01/20 11:40:17;;;;;;;20.33;6.50;;;3.20;99.90;;;;;;4875457;29;20212;-66
2023/01/20 11:42:48;;;;;;;15.60;6.43;;;3.20;99.90;;;;;;4876459;29;20357;-66
2023/01/20 11:45:31;;;;;;;16.23;8.25;;;3.30;99.90;;;;;;4875326;29;20589;-66
2023/01/20 11:48:17;;;;;;;15.65;7.78;;;3.30;99.90;;;;;;4876441;29;20208;-65
2023/01/20 11:50:48;;;;;;;9.10;7.03;;;3.20;99.90;;;;;;4878792;29;20224;-66
2023/01/20 11:53:21;;;;;;;3.78;2.70;;;3.20;99.90;;;;;;4878665;29;20222;-66
2023/01/20 11:55:56;;;;;;;9.27;6.25;;;3.10;99.90;;;;;;4877907;29;20216;-66
2023/01/20 11:58:27;;;;;;;5.82;3.08;;;3.10;99.90;;;;;;4879813;29;20235;-66
2023/01/20 12:01:01;;;;;;;9.00;3.80;;;3.10;99.90;;;;;;4879488;29;20247;-65
2023/01/20 12:03:47;;;;;;;10.85;6.18;;;3.00;99.90;;;;;;4872509;29;20273;-66
2023/01/20 12:06:18;;;;;;;3.97;3.45;;;3.10;99.90;;;;;;4878813;29;20224;-66
2023/01/20 12:08:49;;;;;;;3.45;3.15;;;3.10;99.90;;;;;;4879387;29;20593;-66
2023/01/20 12:11:22;;;;;;;7.40;4.53;;;3.10;99.90;;;;;;4878565;29;20249;-65
2023/01/20 12:16:55;;;;;;;3.25;3.10;;;3.10;99.90;;;;;;4879772;29;20219;-65
2023/01/20 12:19:27;;;;;;;14.85;7.53;;;3.10;99.90;;;;;;4878718;29;20597;-66
2023/01/20 12:22:00;;;;;;;9.13;7.45;;;3.10;99.90;;;;;;4879205;29;20236;-65
2023/01/20 12:25:06;;;;;;;6.85;5.78;;;3.00;99.90;;;;;;4878229;29;20303;-65
2023/01/20 12:27:23;;;;;;;2.40;2.20;;;3.00;99.90;;;;;;4878811;29;20669;-66
2023/01/20 12:29:54;;;;;;;17.90;8.30;;;3.10;99.90;;;;;;4879510;29;20216;-65
2023/01/20 12:32:20;;;;;;;3.42;3.10;;;3.10;99.90;;;;;;4878696;29;20727;-65
2023/01/20 12:34:47;;;;;;;3.22;3.03;;;3.10;99.90;;;;;;4877173;29;20209;-66
2023/01/20 12:37:23;;;;;;;4.82;2.08;;;3.20;99.90;;;;;;4878153;29;20294;-66
2023/01/20 12:40:04;;;;;;;6.40;4.03;;;3.20;99.90;;;;;;4878197;29;20554;-66
2023/01/20 12:42:56;;;;;;;2.67;1.70;;;3.20;99.90;;;;;;4879348;29;20231;-66
2023/01/20 12:45:36;;;;;;;3.05;2.90;;;3.20;99.90;;;;;;4873604;29;20216;-66
2023/01/20 12:48:17;;;;;;;4.07;3.88;;;3.20;99.90;;;;;;4877534;29;20223;-66
2023/01/20 12:50:58;;;;;;;1.95;1.85;;;3.20;99.90;;;;;;4878785;29;20228;-68
2023/01/20 12:53:38;;;;;;;6.38;4.32;;;3.30;99.90;;;;;;4876666;29;20216;-69
2023/01/20 12:56:14;;;;;;;3.72;3.40;;;3.30;99.90;;;;;;4878278;29;20601;-66
2023/01/20 12:58:51;;;;;;;8.48;5.95;;;3.30;99.90;;;;;;4879213;29;20227;-66
2023/01/20 13:01:37;;;;;;;2.42;2.22;;;3.30;99.90;;;;;;4878522;29;20658;-66
2023/01/20 13:04:34;;;;;;;5.47;4.97;;;3.30;99.90;;;;;;4876959;29;20215;-65
2023/01/20 13:07:28;;;;;;;3.75;3.35;;;3.30;99.90;;;;;;4878491;29;20650;-65
2023/01/20 13:10:09;;;;;;;6.13;3.00;;;3.40;99.90;;;;;;4874554;29;20212;-68
2023/01/20 13:12:46;;;;;;;1.95;1.92;;;3.40;99.90;;;;;;4878567;29;20247;-68
2023/01/20 13:15:19;;;;;;;3.85;2.22;;;3.40;99.90;;;;;;4878556;29;20200;-68
2023/01/20 13:18:01;;;;;;;3.45;2.92;;;3.30;99.90;;;;;;4878775;29;20239;-67
2023/01/20 13:20:30;;;;;;;4.25;3.95;;;3.30;99.90;;;;;;4877996;29;20212;-68
2023/01/20 13:23:01;;;;;;;3.20;2.60;;;3.30;99.90;;;;;;4877148;29;20288;-68
2023/01/20 13:25:28;;;;;;;4.53;4.15;;;3.30;99.90;;;;;;4870870;29;20204;-67
2023/01/20 13:27:56;;;;;;;6.00;2.53;;;3.30;99.90;;;;;;4877921;29;20247;-68
2023/01/20 13:30:41;;;;;;;5.85;2.55;;;3.40;99.90;;;;;;4871329;29;20205;-68
2023/01/20 13:33:15;;;;;;;1.92;1.83;;;3.40;99.90;;;;;;4876351;29;20211;-67
2023/01/20 13:35:46;;;;;;;6.82;3.53;;;3.40;99.90;;;;;;4878006;29;20220;-67
2023/01/20 13:38:20;;;;;;;6.15;3.78;;;3.50;99.90;;;;;;4875757;29;20298;-69
2023/01/20 13:40:50;;;;;;;7.75;3.13;;;3.60;99.90;;;;;;4877043;29;20234;-69
2023/01/20 13:43:48;;;;;;;3.17;2.40;;;3.60;99.90;;;;;;4877503;29;20227;-69
2023/01/20 13:46:46;;;;;;;2.15;2.05;;;3.70;99.90;;;;;;4854190;29;20216;-68
2023/01/20 13:49:44;;;;;;;4.50;4.13;;;3.70;99.90;;;;;;4877056;29;20258;-69
2023/01/20 13:52:11;;;;;;;4.07;3.78;;;3.70;99.90;;;;;;4876307;29;20581;-69
2023/01/20 13:54:46;;;;;;;4.45;4.15;;;3.70;99.90;;;;;;4870944;29;20268;-69
2023/01/20 13:57:36;;;;;;;3.63;3.30;;;3.60;99.90;;;;;;4875496;29;20708;-68
2023/01/20 14:00:12;;;;;;;5.15;2.63;;;3.60;99.90;;;;;;4876956;29;20200;-68
2023/01/20 14:02:39;;;;;;;2.25;1.45;;;3.60;99.90;;;;;;4876703;29;20228;-69
2023/01/20 14:05:22;;;;;;;3.50;3.15;;;3.60;99.90;;;;;;4875699;29;20548;-69
2023/01/20 14:07:49;;;;;;;3.58;3.30;;;3.50;99.90;;;;;;4874199;29;20221;-69
2023/01/20 14:10:16;;;;;;;5.15;4.70;;;3.40;99.90;;;;;;4876737;29;20208;-69
2023/01/20 14:12:42;;;;;;;15.38;3.17;;;3.40;99.90;;;;;;4875271;29;20212;-69
2023/01/20 14:15:30;;;;;;;10.93;4.97;;;3.40;99.90;;;;;;4875263;29;20209;-68
2023/01/20 14:17:59;;;;;;;4.20;3.15;;;3.40;99.90;;;;;;4872109;29;20223;-69
2023/01/20 14:20:28;;;;;;;2.92;2.70;;;3.40;99.90;;;;;;4870962;29;20207;-68
2023/01/20 14:23:14;;;;;;;4.07;3.08;;;3.40;99.90;;;;;;4874670;29;20219;-69
2023/01/20 14:25:40;;;;;;;7.32;3.05;;;3.40;99.90;;;;;;4880638;29;20215;-69
2023/01/20 14:28:19;;;;;;;6.50;5.47;;;3.30;99.90;;;;;;4876605;29;20227;-67
2023/01/20 14:30:46;;;;;;;4.05;3.72;;;3.30;99.90;;;;;;4883231;29;20673;-68
2023/01/20 14:33:16;;;;;;;3.20;1.88;;;3.20;99.90;;;;;;4875263;29;20228;-69
2023/01/20 14:35:44;;;;;;;5.68;3.42;;;3.20;99.90;;;;;;4879940;29;20240;-69
2023/01/20 14:38:17;;;;;;;2.97;2.80;;;3.10;99.90;;;;;;4878773;29;20228;-69
2023/01/20 14:40:44;;;;;;;7.38;5.28;;;3.00;99.90;;;;;;4875466;29;20251;-69
2023/01/20 14:43:17;;;;;;;7.45;6.85;;;3.00;99.90;;;;;;4874854;29;20212;-69
2023/01/20 14:45:47;;;;;;;6.63;4.75;;;2.90;99.90;;;;;;4875567;29;20225;-69
2023/01/20 14:48:14;;;;;;;3.33;3.03;;;2.90;99.90;;;;;;4867992;29;20301;-68
2023/01/20 14:50:42;;;;;;;1.23;1.23;;;2.80;99.90;;;;;;4875348;29;20232;-67
2023/01/20 14:53:13;;;;;;;4.63;3.92;;;2.80;99.90;;;;;;4869571;29;20219;-67
2023/01/20 14:55:42;;;;;;;4.63;3.03;;;2.70;99.90;;;;;;4874670;29;20682;-67
2023/01/20 14:58:14;;;;;;;3.72;3.50;;;2.70;99.90;;;;;;4873811;29;20808;-68
2023/01/20 15:00:43;;;;;;;3.33;2.55;;;2.60;99.90;;;;;;4875428;29;20666;-68
2023/01/20 15:03:16;;;;;;;7.30;3.33;;;2.60;99.90;;;;;;4873728;29;20207;-68
2023/01/20 15:05:54;;;;;;;2.20;1.98;;;2.50;99.90;;;;;;4875829;29;20208;-68
2023/01/20 15:08:25;;;;;;;3.15;2.38;;;2.50;99.90;;;;;;4875263;29;20222;-68
2023/01/20 15:11:27;;;;;;;5.93;2.58;;;2.40;99.90;;;;;;4874788;29;20243;-68
2023/01/20 15:14:08;;;;;;;2.65;1.48;;;2.40;99.90;;;;;;4837663;29;20229;-68
2023/01/20 15:16:48;;;;;;;3.72;2.67;;;2.30;99.90;;;;;;4833812;29;20209;-69
2023/01/20 15:19:32;;;;;;;4.55;3.05;;;2.20;99.90;;;;;;4862917;29;20228;-69
2023/01/20 15:22:32;;;;;;;2.92;2.83;;;2.10;99.90;;;;;;4874700;29;20239;-67
2023/01/20 15:25:12;;;;;;;3.00;1.83;;;2.10;99.90;;;;;;4878411;29;20223;-68
2023/01/20 15:27:39;;;;;;;4.15;1.67;;;2.00;99.90;;;;;;4877334;29;20223;-68
2023/01/20 15:30:19;;;;;;;5.57;2.90;;;2.00;99.90;;;;;;4879631;29;20229;-68
2023/01/20 15:32:47;;;;;;;4.32;2.63;;;1.90;99.90;;;;;;4887049;29;20213;-69
2023/01/20 15:35:14;;;;;;;3.80;3.58;;;1.90;99.90;;;;;;4876056;29;20211;-68
2023/01/20 15:37:42;;;;;;;3.10;2.90;;;1.80;99.90;;;;;;4875578;29;20216;-67
2023/01/20 15:40:17;;;;;;;6.05;3.65;;;1.80;99.90;;;;;;4878878;29;20235;-69
2023/01/20 15:42:44;;;;;;;8.63;2.83;;;1.70;99.90;;;;;;4877859;29;20207;-67
2023/01/20 15:45:15;;;;;;;12.25;6.93;;;1.70;99.90;;;;;;4877638;29;20225;-67
2023/01/20 15:47:42;;;;;;;15.43;8.55;;;1.60;99.90;;;;;;4880033;29;20316;-67
2023/01/20 15:50:14;;;;;;;7.25;6.05;;;1.60;99.90;;;;;;4877804;29;20211;-68
2023/01/20 15:52:41;;;;;;;11.23;6.47;;;1.50;99.90;;;;;;4873296;29;20216;-68
2023/01/20 15:55:11;;;;;;;2.80;2.58;;;1.50;99.90;;;;;;4877434;29;20212;-67
2023/01/20 15:57:39;;;;;;;3.85;3.47;;;1.40;99.90;;;;;;4872788;29;20208;-67
2023/01/20 16:00:14;;;;;;;2.58;2.38;;;1.40;99.90;;;;;;4876833;29;20239;-67
2023/01/20 16:02:41;;;;;;;3.80;3.03;;;1.40;99.90;;;;;;4871345;29;20572;-67
2023/01/20 16:05:09;;;;;;;4.10;3.90;;;1.30;99.90;;;;;;4877567;29;20215;-68
2023/01/20 16:07:36;;;;;;;9.90;5.13;;;1.30;99.90;;;;;;4875408;29;20832;-68
2023/01/20 16:10:03;;;;;;;1.60;1.60;;;1.30;99.90;;;;;;4876334;29;20306;-69
2023/01/20 16:12:30;;;;;;;5.60;5.20;;;1.20;99.90;;;;;;4877713;29;20644;-68
2023/01/20 16:14:58;;;;;;;4.28;4.03;;;1.20;99.90;;;;;;4879131;29;20315;-67
2023/01/20 16:17:30;;;;;;;1.75;1.65;;;1.20;99.90;;;;;;4880134;29;20226;-68
2023/01/20 16:19:57;;;;;;;3.20;2.42;;;1.20;99.90;;;;;;4880184;29;20713;-68
2023/01/20 16:22:23;;;;;;;4.47;2.13;;;1.10;99.90;;;;;;4872433;29;20281;-68
2023/01/20 16:24:51;;;;;;;3.75;3.53;;;1.10;99.90;;;;;;4877043;29;20822;-68
2023/01/20 16:27:20;;;;;;;6.97;6.15;;;1.10;99.90;;;;;;4879537;29;20219;-68
2023/01/20 16:29:47;;;;;;;5.00;4.70;;;1.00;99.90;;;;;;4878397;29;20215;-68
2023/01/20 16:32:15;;;;;;;3.22;2.88;;;1.00;99.90;;;;;;4878911;29;20321;-68
2023/01/20 16:34:43;;;;;;;4.00;3.63;;;1.00;99.90;;;;;;4877764;29;20654;-67
2023/01/20 16:37:12;;;;;;;5.25;4.80;;;0.90;99.90;;;;;;4878790;29;20294;-68
2023/01/20 16:39:39;;;;;;;7.35;5.88;;;0.90;99.90;;;;;;4876047;29;20230;-67
2023/01/20 16:42:06;;;;;;;7.22;5.05;;;0.90;99.90;;;;;;4878479;29;20239;-67
2023/01/20 16:44:32;;;;;;;12.45;5.32;;;0.80;99.90;;;;;;4878771;29;20296;-68
2023/01/20 16:46:59;;;;;;;4.95;4.13;;;0.80;99.90;;;;;;4878124;29;20227;-68
2023/01/20 16:49:27;;;;;;;5.78;4.55;;;0.80;99.90;;;;;;4878342;29;20291;-69
2023/01/20 16:51:54;;;;;;;5.00;3.63;;;0.70;99.90;;;;;;4875986;29;20708;-69
2023/01/20 16:54:21;;;;;;;5.07;4.40;;;0.70;99.90;;;;;;4877013;29;20216;-68
2023/01/20 16:56:48;;;;;;;4.22;3.85;;;0.70;99.90;;;;;;4878759;29;20711;-69
2023/01/20 16:59:16;;;;;;;3.80;3.45;;;0.60;99.90;;;;;;4878041;29;20231;-69
2023/01/20 17:01:43;;;;;;;6.72;3.15;;;0.60;99.90;;;;;;4879193;29;20273;-69
2023/01/20 17:04:10;;;;;;;5.72;4.03;;;0.60;99.90;;;;;;4875922;29;20209;-69
2023/01/20 17:06:39;;;;;;;6.10;3.33;;;0.50;99.90;;;;;;4878109;29;20208;-69
2023/01/20 17:09:07;;;;;;;3.72;3.42;;;0.50;99.90;;;;;;4878058;29;20214;-68
2023/01/20 17:11:36;;;;;;;3.10;2.90;;;0.50;99.90;;;;;;4880739;29;20229;-67
2023/01/20 17:14:04;;;;;;;4.50;4.13;;;0.50;99.90;;;;;;4877237;29;20580;-69
2023/01/20 17:16:32;;;;;;;8.93;3.92;;;0.50;99.90;;;;;;4878238;29;20210;-69
2023/01/20 17:19:00;;;;;;;4.30;4.10;;;0.40;99.90;;;;;;4877536;29;20266;-69
2023/01/20 17:21:28;;;;;;;2.28;2.17;;;0.40;99.90;;;;;;4873044;29;20235;-68
2023/01/20 17:23:59;;;;;;;5.85;3.97;;;0.40;99.90;;;;;;4877280;29;20214;-68
2023/01/20 17:26:25;;;;;;;5.50;3.60;;;0.40;99.90;;;;;;4878389;29;20215;-68
2023/01/20 17:28:55;;;;;;;5.07;4.43;;;0.50;99.90;;;;;;4878380;29;20563;-67
2023/01/20 17:31:21;;;;;;;9.38;6.00;;;0.50;99.90;;;;;;4880975;29;20277;-68
2023/01/20 17:33:49;;;;;;;7.55;3.88;;;0.50;99.90;;;;;;4876228;29;20219;-68
2023/01/20 17:36:16;;;;;;;9.95;4.78;;;0.50;99.90;;;;;;4873694;29;20212;-68
2023/01/20 17:38:44;;;;;;;4.93;3.85;;;0.50;99.90;;;;;;4875364;29;20589;-68
2023/01/20 17:41:13;;;;;;;4.68;4.53;;;0.50;99.90;;;;;;4876322;29;20290;-67
2023/01/20 17:43:41;;;;;;;5.47;3.20;;;0.60;99.90;;;;;;4877334;29;20206;-69
2023/01/20 17:46:14;;;;;;;15.18;4.82;;;0.60;99.90;;;;;;4878853;29;20218;-69
2023/01/20 17:48:40;;;;;;;5.75;5.22;;;0.60;99.90;;;;;;4872465;29;20207;-67
2023/01/20 17:51:11;;;;;;;11.65;5.75;;;0.60;99.90;;;;;;4879410;29;20315;-69
2023/01/20 17:53:38;;;;;;;5.75;5.22;;;0.60;99.90;;;;;;4873085;29;20214;-68
2023/01/20 17:56:06;;;;;;;3.38;3.08;;;0.60;99.90;;;;;;4878889;29;20284;-68
2023/01/20 17:58:34;;;;;;;7.80;3.40;;;0.60;99.90;;;;;;4876422;29;20302;-68
2023/01/20 18:01:12;;;;;;;5.70;5.20;;;0.60;99.90;;;;;;4877273;29;20243;-68
2023/01/20 18:03:39;;;;;;;4.95;4.43;;;0.60;99.90;;;;;;4877431;29;20207;-67
2023/01/20 18:06:07;;;;;;;6.85;6.32;;;0.60;99.90;;;;;;4875728;29;20218;-67
2023/01/20 18:08:42;;;;;;;6.32;5.65;;;0.60;99.90;;;;;;5112409;27;20537;-69
2023/01/20 18:11:11;;;;;;;3.10;2.85;;;0.50;99.90;;;;;;5099437;28;20241;-66
2023/01/20 18:13:38;;;;;;;6.38;5.00;;;0.50;99.90;;;;;;5086721;28;20222;-68
2023/01/20 18:16:06;;;;;;;3.67;3.33;;;0.50;99.90;;;;;;5087945;28;20360;-70
2023/01/20 18:18:33;;;;;;;7.60;7.10;;;0.50;99.90;;;;;;5088937;28;20647;-69
2023/01/20 18:21:10;;;;;;;10.15;9.38;;;0.40;99.90;;;;;;5087255;28;20305;-69
2023/01/20 18:23:37;;;;;;;11.43;5.78;;;0.40;99.90;;;;;;5090919;28;20355;-70
2023/01/20 18:26:06;;;;;;;14.75;7.07;;;0.40;99.90;;;;;;5087561;28;20214;-69
2023/01/20 18:28:34;;;;;;;24.90;7.80;;;0.40;99.90;;;;;;5090206;28;20232;-70
2023/01/20 18:31:06;;;;;;;12.88;6.65;;;0.30;99.90;;;;;;5087596;28;20226;-69
2023/01/20 18:33:37;;;;;;;17.58;6.55;;;0.30;99.90;;;;;;5088338;28;20214;-70